Time;durP1;ratioP1;P1;durP2;ratioP2;P2;SDS_P1;SDS_P2;PMS_P1;PMS_P2;Temp;Humidity;BMP_temperature;BMP_pressure;BME280_temperature;BME280_humidity;BME280_pressure;Samples;Min_cycle;Max_cycle;Signal;HPM_P1;HPM_P2
2022/03/06 00:01:16;;;;;;;77.28;33.50;;;-3.40;99.90;;;;;;4173030;28;20029;-73
2022/03/06 00:03:17;;;;;;;78.97;33.42;;;-3.40;99.90;;;;;;4158293;28;20032;-53
2022/03/06 00:05:19;;;;;;;80.53;35.72;;;-3.50;99.90;;;;;;4177413;28;20033;-68
2022/03/06 00:07:20;;;;;;;85.07;36.15;;;-3.50;99.90;;;;;;4168667;28;20553;-65
2022/03/06 00:11:27;;;;;;;87.97;35.97;;;-3.60;99.90;;;;;;4172818;28;20053;-90
2022/03/06 00:13:29;;;;;;;90.47;39.00;;;-3.70;99.90;;;;;;4174814;28;20591;-43
2022/03/06 00:15:30;;;;;;;87.25;37.80;;;-3.70;99.90;;;;;;4176265;28;20025;-85
2022/03/06 00:17:31;;;;;;;85.57;38.03;;;-3.70;99.90;;;;;;4174533;28;20056;-69
2022/03/06 00:19:32;;;;;;;91.15;38.83;;;-3.80;99.90;;;;;;4608202;22;20030;-68
2022/03/06 00:21:38;;;;;;;92.55;39.13;;;-3.70;99.90;;;;;;4182180;28;20049;-68
2022/03/06 00:23:40;;;;;;;91.07;37.72;;;-3.70;99.90;;;;;;4190139;28;20017;-68
2022/03/06 00:25:41;;;;;;;79.97;33.97;;;-3.70;99.90;;;;;;4178481;28;20021;-80
2022/03/06 00:27:42;;;;;;;71.70;30.70;;;-3.60;99.90;;;;;;4175221;28;20045;-79
2022/03/06 00:29:43;;;;;;;72.10;31.40;;;-3.70;99.90;;;;;;4188387;28;20020;-70
2022/03/06 00:31:44;;;;;;;63.83;29.25;;;-3.70;99.90;;;;;;4191539;28;20037;-70
2022/03/06 00:33:46;;;;;;;61.22;27.00;;;-3.70;99.90;;;;;;4185985;28;20138;-78
2022/03/06 00:35:47;;;;;;;66.07;30.27;;;-3.70;99.90;;;;;;4176121;28;20122;-71
2022/03/06 00:37:48;;;;;;;66.03;29.02;;;-3.90;99.90;;;;;;4192916;28;20082;-68
2022/03/06 00:39:49;;;;;;;65.53;28.50;;;-4.00;99.90;;;;;;4190778;28;20025;-69
2022/03/06 00:41:50;;;;;;;70.93;31.00;;;-4.10;99.90;;;;;;4176081;28;20099;-66
2022/03/06 00:43:51;;;;;;;78.68;32.53;;;-4.20;99.90;;;;;;4175573;28;20358;-72
2022/03/06 00:45:53;;;;;;;71.32;31.67;;;-4.20;99.90;;;;;;4176680;28;20053;-64
2022/03/06 00:47:54;;;;;;;68.85;30.27;;;-4.20;99.90;;;;;;4192897;28;20032;-69
2022/03/06 00:49:55;;;;;;;66.47;30.73;;;-4.20;99.90;;;;;;4178900;28;20086;-81
2022/03/06 00:54:01;;;;;;;63.80;29.95;;;-4.20;99.90;;;;;;4152211;28;20123;-77
2022/03/06 00:56:02;;;;;;;69.47;30.85;;;-4.10;99.90;;;;;;4143836;28;20097;-75
2022/03/06 00:58:06;;;;;;;65.88;29.63;;;-4.10;99.90;;;;;;4155123;28;20033;-71
2022/03/06 01:00:08;;;;;;;65.10;30.33;;;-4.10;99.90;;;;;;4157933;28;20033;-72
2022/03/06 01:02:09;;;;;;;70.03;29.83;;;-4.10;99.90;;;;;;4146636;28;20084;-73
2022/03/06 01:04:10;;;;;;;71.20;29.33;;;-4.10;99.90;;;;;;4141163;28;20034;-69
2022/03/06 01:06:11;;;;;;;69.00;31.42;;;-4.00;99.90;;;;;;4143099;28;20033;-75
2022/03/06 01:08:13;;;;;;;71.38;31.42;;;-4.00;99.90;;;;;;4139927;28;20152;-69
2022/03/06 01:10:15;;;;;;;73.30;29.88;;;-4.00;99.90;;;;;;4151032;28;20079;-73
2022/03/06 01:12:16;;;;;;;74.03;32.33;;;-3.90;99.90;;;;;;4157610;28;20087;-78
2022/03/06 01:14:18;;;;;;;75.10;30.15;;;-3.90;99.90;;;;;;4159073;28;20079;-70
2022/03/06 01:16:19;;;;;;;73.97;31.83;;;-3.90;99.90;;;;;;4158094;28;20139;-75
2022/03/06 01:18:20;;;;;;;72.40;32.78;;;-3.90;99.90;;;;;;4157674;28;20067;-78
2022/03/06 01:20:23;;;;;;;75.10;31.77;;;-4.00;99.90;;;;;;4157477;28;20044;-80
2022/03/06 01:22:24;;;;;;;70.70;30.55;;;-4.00;99.90;;;;;;4156936;28;20046;-69
2022/03/06 01:24:25;;;;;;;76.82;30.90;;;-4.00;99.90;;;;;;4157892;28;20033;-65
2022/03/06 01:26:27;;;;;;;66.55;30.30;;;-3.90;99.90;;;;;;4156539;28;20096;-74
2022/03/06 01:28:28;;;;;;;67.70;30.70;;;-3.80;99.90;;;;;;4142128;28;20544;-65
2022/03/06 01:30:29;;;;;;;80.75;34.72;;;-3.90;99.90;;;;;;4140779;28;20038;-62
2022/03/06 01:32:30;;;;;;;74.65;32.90;;;-3.90;99.90;;;;;;4140791;28;20038;-77
2022/03/06 01:34:31;;;;;;;80.25;34.28;;;-4.00;99.90;;;;;;4140882;28;20443;-78
2022/03/06 01:36:32;;;;;;;84.18;36.72;;;-4.00;99.90;;;;;;4140668;28;20034;-68
2022/03/06 01:38:34;;;;;;;85.88;34.65;;;-3.90;99.90;;;;;;4141094;28;20068;-70
2022/03/06 01:40:35;;;;;;;74.13;31.65;;;-3.90;99.90;;;;;;4142650;28;20037;-72
2022/03/06 01:42:44;;;;;;;84.28;33.05;;;-3.90;99.90;;;;;;4141736;28;20038;-73
2022/03/06 01:44:46;;;;;;;80.60;36.53;;;-4.00;99.90;;;;;;4141090;28;20045;-59
2022/03/06 01:46:48;;;;;;;80.88;34.55;;;-4.00;99.90;;;;;;4141649;28;20022;-71
2022/03/06 01:48:49;;;;;;;90.95;37.05;;;-4.10;99.90;;;;;;4140856;28;20111;-47
2022/03/06 01:50:50;;;;;;;85.63;36.20;;;-4.10;99.90;;;;;;4141805;28;20033;-77
2022/03/06 01:52:53;;;;;;;77.00;35.75;;;-4.00;99.90;;;;;;4139491;28;20099;-54
2022/03/06 01:54:54;;;;;;;84.30;35.58;;;-4.00;99.90;;;;;;4141879;28;20080;-75
2022/03/06 01:56:55;;;;;;;81.32;35.45;;;-4.00;99.90;;;;;;4140963;28;20057;-72
2022/03/06 01:58:58;;;;;;;80.93;35.25;;;-4.00;99.90;;;;;;4142059;28;20087;-69
2022/03/06 02:00:59;;;;;;;83.75;35.67;;;-4.00;99.90;;;;;;4145381;28;20025;-68
2022/03/06 02:03:01;;;;;;;83.10;35.55;;;-4.00;99.90;;;;;;4140277;28;20473;-69
2022/03/06 02:05:03;;;;;;;84.32;35.47;;;-4.00;99.90;;;;;;4157004;28;20727;-68
2022/03/06 02:07:04;;;;;;;89.40;36.50;;;-4.00;99.90;;;;;;4139639;28;20073;-67
2022/03/06 02:09:06;;;;;;;78.15;33.50;;;-4.00;99.90;;;;;;4157719;28;20025;-70
2022/03/06 02:11:08;;;;;;;80.32;34.13;;;-3.90;99.90;;;;;;4157860;28;20203;-68
2022/03/06 02:13:10;;;;;;;79.13;33.83;;;-4.00;99.90;;;;;;4157654;28;20057;-77
2022/03/06 02:15:12;;;;;;;79.18;34.33;;;-3.90;99.90;;;;;;4158364;28;20033;-67
2022/03/06 02:17:13;;;;;;;79.78;33.38;;;-3.90;99.90;;;;;;4157693;28;20022;-72
2022/03/06 02:19:15;;;;;;;83.18;36.05;;;-3.80;99.90;;;;;;4156852;28;20087;-66
2022/03/06 02:21:16;;;;;;;84.90;35.03;;;-3.80;99.90;;;;;;4158138;28;20099;-68
2022/03/06 02:23:17;;;;;;;85.05;36.38;;;-3.70;99.90;;;;;;4155878;28;20541;-74
2022/03/06 02:25:25;;;;;;;74.72;31.40;;;-3.70;99.90;;;;;;4157981;28;20427;-63
2022/03/06 02:27:28;;;;;;;76.57;33.53;;;-3.60;99.90;;;;;;4661282;22;20039;-64
2022/03/06 02:29:29;;;;;;;76.72;31.35;;;-3.60;99.90;;;;;;4143667;28;20100;-81
2022/03/06 02:31:30;;;;;;;72.78;30.75;;;-3.60;99.90;;;;;;4126352;28;20043;-86
2022/03/06 02:33:31;;;;;;;68.95;30.60;;;-3.60;99.90;;;;;;4143604;28;20100;-79
2022/03/06 02:35:34;;;;;;;67.57;31.70;;;-3.60;99.90;;;;;;4141714;28;20038;-57
2022/03/06 02:37:35;;;;;;;66.43;29.13;;;-3.60;99.90;;;;;;4145955;28;20482;-52
2022/03/06 02:39:37;;;;;;;62.95;29.65;;;-3.60;99.90;;;;;;4143269;28;20441;-71
2022/03/06 02:41:38;;;;;;;68.40;30.35;;;-3.60;99.90;;;;;;4126738;28;20128;-68
2022/03/06 02:43:40;;;;;;;74.55;32.17;;;-3.60;99.90;;;;;;4143890;28;20026;-67
2022/03/06 02:45:43;;;;;;;78.30;31.83;;;-3.60;99.90;;;;;;4143952;28;20030;-69
2022/03/06 02:47:45;;;;;;;73.15;31.13;;;-3.70;99.90;;;;;;4144179;28;20033;-85
2022/03/06 02:49:46;;;;;;;71.80;30.73;;;-3.70;99.90;;;;;;4144865;28;20457;-60
2022/03/06 02:51:48;;;;;;;70.18;31.45;;;-3.80;99.90;;;;;;4147641;28;20033;-68
2022/03/06 02:53:49;;;;;;;65.97;30.42;;;-3.80;99.90;;;;;;4125539;28;20133;-75
2022/03/06 02:55:50;;;;;;;68.82;30.33;;;-3.80;99.90;;;;;;4144495;28;20030;-61
2022/03/06 02:57:53;;;;;;;73.63;33.10;;;-3.70;99.90;;;;;;4144594;28;20034;-58
2022/03/06 02:59:54;;;;;;;74.78;31.20;;;-3.80;99.90;;;;;;4144646;28;20029;-82
2022/03/06 03:01:55;;;;;;;78.43;33.88;;;-3.80;99.90;;;;;;4143313;28;20080;-79
2022/03/06 03:03:57;;;;;;;79.00;33.38;;;-3.80;99.90;;;;;;4143472;28;20038;-46
2022/03/06 03:05:58;;;;;;;79.60;32.83;;;-3.90;99.90;;;;;;4144025;28;20026;-58
2022/03/06 03:07:59;;;;;;;78.20;32.38;;;-3.90;99.90;;;;;;4143666;28;20034;-68
2022/03/06 03:10:00;;;;;;;70.20;30.58;;;-3.90;99.90;;;;;;4143404;28;20572;-69
2022/03/06 03:12:03;;;;;;;71.97;33.85;;;-3.90;99.90;;;;;;4142706;28;20495;-67
2022/03/06 03:14:04;;;;;;;75.80;32.80;;;-3.90;99.90;;;;;;4144093;28;20088;-58
2022/03/06 03:16:06;;;;;;;82.32;34.30;;;-3.90;99.90;;;;;;4125416;28;20459;-65
2022/03/06 03:18:07;;;;;;;77.93;33.00;;;-3.90;99.90;;;;;;4143687;28;20517;-66
2022/03/06 03:20:10;;;;;;;76.38;31.50;;;-3.90;99.90;;;;;;4142894;28;20064;-60
2022/03/06 03:22:12;;;;;;;73.85;31.90;;;-3.90;99.90;;;;;;4144355;28;20491;-65
2022/03/06 03:24:13;;;;;;;76.03;32.72;;;-3.90;99.90;;;;;;4141847;28;20446;-56
2022/03/06 03:26:14;;;;;;;76.45;34.97;;;-3.80;99.90;;;;;;4143901;28;20144;-65
2022/03/06 03:28:15;;;;;;;79.00;32.45;;;-3.80;99.90;;;;;;4149581;28;20059;-66
2022/03/06 03:30:16;;;;;;;82.38;30.70;;;-3.70;99.90;;;;;;4160026;28;20034;-65
2022/03/06 03:32:17;;;;;;;73.03;32.00;;;-3.70;99.90;;;;;;4158865;28;20033;-75
2022/03/06 03:34:19;;;;;;;74.10;33.05;;;-3.70;99.90;;;;;;4296936;22;20057;-80
2022/03/06 03:36:20;;;;;;;82.93;32.67;;;-3.80;99.90;;;;;;4174982;28;20086;-74
2022/03/06 03:38:21;;;;;;;72.55;31.73;;;-3.80;99.90;;;;;;4175993;28;20028;-69
2022/03/06 03:40:22;;;;;;;76.53;31.70;;;-3.80;99.90;;;;;;4175249;28;20566;-65
2022/03/06 03:42:24;;;;;;;71.60;31.30;;;-3.80;99.90;;;;;;4175636;28;20099;-73
2022/03/06 03:44:25;;;;;;;82.50;34.28;;;-3.80;99.90;;;;;;4175089;28;20045;-60
2022/03/06 03:46:26;;;;;;;80.80;31.48;;;-3.80;99.90;;;;;;4174094;28;20044;-59
2022/03/06 03:50:47;;;;;;;76.15;32.58;;;-3.80;99.90;;;;;;4194684;22;20056;-64
2022/03/06 03:52:48;;;;;;;83.25;31.80;;;-3.80;99.90;;;;;;4178199;28;20067;-58
2022/03/06 03:54:49;;;;;;;76.75;33.13;;;-3.80;99.90;;;;;;4172004;28;20045;-72
2022/03/06 03:56:50;;;;;;;79.80;33.63;;;-3.80;99.90;;;;;;4190782;28;20033;-70
2022/03/06 03:58:51;;;;;;;78.13;34.97;;;-3.80;99.90;;;;;;4180744;28;20037;-67
2022/03/06 04:00:55;;;;;;;85.22;35.25;;;-3.80;99.90;;;;;;4175054;28;20166;-56
2022/03/06 04:02:56;;;;;;;83.93;35.67;;;-3.80;99.90;;;;;;4175908;28;20087;-49
2022/03/06 04:04:58;;;;;;;83.25;36.70;;;-3.80;99.90;;;;;;4174758;28;20143;-60
2022/03/06 04:06:59;;;;;;;85.78;35.47;;;-3.80;99.90;;;;;;4184003;28;20089;-71
2022/03/06 04:09:00;;;;;;;78.90;34.15;;;-3.70;99.90;;;;;;4183647;23;20113;-51
2022/03/06 04:11:02;;;;;;;82.53;35.58;;;-3.70;99.90;;;;;;4139867;28;20042;-63
2022/03/06 04:13:03;;;;;;;77.22;35.47;;;-3.70;99.90;;;;;;4159572;28;20478;-59
2022/03/06 04:15:05;;;;;;;80.65;34.05;;;-3.70;99.90;;;;;;4158069;28;20071;-51
2022/03/06 04:17:06;;;;;;;80.03;34.30;;;-3.70;99.90;;;;;;4158487;28;20029;-63
2022/03/06 04:19:07;;;;;;;77.10;33.58;;;-3.70;99.90;;;;;;4158359;28;20068;-66
2022/03/06 04:21:08;;;;;;;79.85;36.83;;;-3.70;99.90;;;;;;4157509;28;20087;-67
2022/03/06 04:23:09;;;;;;;77.53;33.13;;;-3.70;99.90;;;;;;4158658;28;20033;-67
2022/03/06 04:25:11;;;;;;;82.28;34.90;;;-3.80;99.90;;;;;;4157747;28;20037;-64
2022/03/06 04:27:12;;;;;;;88.32;34.47;;;-3.70;99.90;;;;;;4158865;28;20037;-51
2022/03/06 04:29:13;;;;;;;69.85;32.65;;;-3.70;99.90;;;;;;4157779;28;20026;-66
2022/03/06 04:31:14;;;;;;;75.25;33.55;;;-3.80;99.90;;;;;;4159213;28;20037;-61
2022/03/06 04:33:15;;;;;;;77.22;33.63;;;-3.70;99.90;;;;;;4157269;28;20026;-65
2022/03/06 04:35:16;;;;;;;81.80;33.65;;;-3.70;99.90;;;;;;4159132;28;20436;-63
2022/03/06 04:37:17;;;;;;;81.53;34.03;;;-3.70;99.90;;;;;;4158294;28;20152;-50
2022/03/06 04:39:19;;;;;;;72.13;32.75;;;-3.70;99.90;;;;;;4158090;28;20110;-55
2022/03/06 04:41:20;;;;;;;76.03;33.35;;;-3.70;99.90;;;;;;4157376;28;20080;-59
2022/03/06 04:43:24;;;;;;;76.90;34.67;;;-3.70;99.90;;;;;;4158455;28;20057;-56
2022/03/06 04:45:26;;;;;;;75.78;32.47;;;-3.80;99.90;;;;;;4157317;28;20034;-58
2022/03/06 04:47:27;;;;;;;76.45;33.38;;;-3.80;99.90;;;;;;4158014;28;20492;-51
2022/03/06 04:49:28;;;;;;;80.13;32.97;;;-3.80;99.90;;;;;;4157719;28;20440;-72
2022/03/06 04:51:30;;;;;;;75.10;34.20;;;-3.80;99.90;;;;;;4157737;28;20045;-71
2022/03/06 04:53:31;;;;;;;71.70;30.65;;;-3.80;99.90;;;;;;4158077;28;20087;-69
2022/03/06 04:55:32;;;;;;;73.90;31.38;;;-3.80;99.90;;;;;;4157509;28;20087;-48
2022/03/06 04:57:34;;;;;;;69.75;31.45;;;-3.80;99.90;;;;;;4241568;22;20049;-57
2022/03/06 04:59:35;;;;;;;74.30;30.67;;;-3.80;99.90;;;;;;4203360;28;20028;-60
2022/03/06 05:01:36;;;;;;;82.82;33.17;;;-3.90;99.90;;;;;;4198956;28;20066;-66
2022/03/06 05:03:37;;;;;;;74.95;31.52;;;-3.90;99.90;;;;;;4189849;28;20560;-55
2022/03/06 05:05:38;;;;;;;70.60;30.45;;;-3.90;99.90;;;;;;4198894;28;20069;-68
2022/03/06 05:07:39;;;;;;;74.72;32.28;;;-3.90;99.90;;;;;;4207960;28;20040;-64
2022/03/06 05:09:40;;;;;;;74.75;32.05;;;-3.90;99.90;;;;;;4207769;28;20036;-64
2022/03/06 05:11:42;;;;;;;70.68;29.30;;;-3.80;99.90;;;;;;4208853;28;20036;-85
2022/03/06 05:13:44;;;;;;;76.05;31.92;;;-3.70;99.90;;;;;;4210776;28;20473;-59
2022/03/06 05:15:45;;;;;;;77.03;33.00;;;-3.60;99.90;;;;;;4210957;28;20039;-70
2022/03/06 05:17:46;;;;;;;75.68;32.75;;;-3.50;99.90;;;;;;4211357;28;20032;-77
2022/03/06 05:19:47;;;;;;;81.63;32.55;;;-3.40;99.90;;;;;;4210421;28;20020;-56
2022/03/06 05:21:48;;;;;;;76.00;31.90;;;-3.30;99.90;;;;;;4207931;28;20036;-56
2022/03/06 05:23:49;;;;;;;80.30;32.13;;;-3.30;99.90;;;;;;4209593;28;20028;-70
2022/03/06 05:25:52;;;;;;;74.22;32.28;;;-3.30;99.90;;;;;;4209960;28;20024;-50
2022/03/06 05:27:53;;;;;;;73.88;30.98;;;-3.20;99.90;;;;;;4207207;28;20028;-57
2022/03/06 05:29:54;;;;;;;74.47;32.17;;;-3.30;99.90;;;;;;4213546;28;20020;-75
2022/03/06 05:31:55;;;;;;;76.80;30.25;;;-3.30;99.90;;;;;;4218713;28;20028;-58
2022/03/06 05:33:56;;;;;;;72.97;31.35;;;-3.40;99.90;;;;;;4203679;28;20569;-78
2022/03/06 05:35:58;;;;;;;77.60;32.17;;;-3.40;99.90;;;;;;4268610;22;20113;-74
2022/03/06 05:37:59;;;;;;;66.28;30.08;;;-3.40;99.90;;;;;;4194670;28;20028;-65
2022/03/06 05:40:00;;;;;;;63.60;28.88;;;-3.40;99.90;;;;;;4176961;28;20040;-73
2022/03/06 05:42:02;;;;;;;73.60;31.75;;;-3.40;99.90;;;;;;4207511;28;20016;-67
2022/03/06 05:44:03;;;;;;;72.57;32.28;;;-3.40;99.90;;;;;;4204821;28;20477;-52
2022/03/06 05:46:04;;;;;;;67.68;30.92;;;-3.40;99.90;;;;;;4172728;28;20040;-56
2022/03/06 05:48:05;;;;;;;76.97;32.67;;;-3.40;99.90;;;;;;4188912;28;20758;-48
2022/03/06 05:50:07;;;;;;;74.50;30.13;;;-3.30;99.90;;;;;;4191010;28;20098;-47
2022/03/06 05:52:08;;;;;;;65.35;29.45;;;-3.30;99.90;;;;;;4189120;28;20036;-65
2022/03/06 05:54:10;;;;;;;62.90;29.48;;;-3.30;99.90;;;;;;4207153;28;20128;-58
2022/03/06 05:56:11;;;;;;;71.82;30.90;;;-3.20;99.90;;;;;;4207191;28;20032;-49
2022/03/06 05:58:13;;;;;;;73.65;31.30;;;-3.20;99.90;;;;;;4207050;28;20069;-52
2022/03/06 06:00:17;;;;;;;61.40;26.75;;;-3.10;99.90;;;;;;4206322;28;20461;-52
2022/03/06 06:02:19;;;;;;;58.28;28.65;;;-3.00;99.90;;;;;;4207792;28;20555;-67
2022/03/06 06:04:20;;;;;;;63.85;28.20;;;-3.00;99.90;;;;;;4207829;28;20081;-48
2022/03/06 06:06:22;;;;;;;61.85;27.88;;;-3.00;99.90;;;;;;4207592;28;20086;-70
2022/03/06 06:08:23;;;;;;;65.30;28.25;;;-2.90;99.90;;;;;;4208259;28;20028;-73
2022/03/06 06:10:24;;;;;;;62.92;29.33;;;-2.90;99.90;;;;;;4179856;28;20111;-68
2022/03/06 06:12:25;;;;;;;64.43;29.00;;;-2.80;99.90;;;;;;4190704;28;20442;-68
2022/03/06 06:14:26;;;;;;;64.95;28.60;;;-2.80;99.90;;;;;;4190248;28;20093;-64
2022/03/06 06:16:27;;;;;;;66.53;28.08;;;-2.80;99.90;;;;;;4190132;28;20028;-73
2022/03/06 06:18:30;;;;;;;67.82;29.23;;;-2.70;99.90;;;;;;4189495;28;20086;-60
2022/03/06 06:20:33;;;;;;;64.13;29.02;;;-2.60;99.90;;;;;;4190447;28;20032;-67
2022/03/06 06:22:35;;;;;;;64.43;29.17;;;-2.60;99.90;;;;;;4170916;28;20053;-59
2022/03/06 06:24:36;;;;;;;59.83;28.35;;;-2.50;99.90;;;;;;4190524;28;20058;-60
2022/03/06 06:26:37;;;;;;;60.27;27.23;;;-2.40;99.90;;;;;;4189686;28;20078;-64
2022/03/06 06:28:39;;;;;;;75.53;29.85;;;-2.40;99.90;;;;;;4190286;28;20330;-68
2022/03/06 06:30:40;;;;;;;69.80;31.40;;;-2.30;99.90;;;;;;4189335;28;20032;-52
2022/03/06 06:32:41;;;;;;;75.43;34.13;;;-2.30;99.90;;;;;;4189216;28;20036;-75
2022/03/06 06:34:44;;;;;;;70.00;31.87;;;-2.10;99.90;;;;;;4189434;28;20367;-85
2022/03/06 06:36:46;;;;;;;65.47;28.43;;;-2.00;99.90;;;;;;4189333;28;20293;-70
2022/03/06 06:38:47;;;;;;;61.93;28.27;;;-1.90;99.90;;;;;;4188908;28;20262;-61
2022/03/06 06:40:50;;;;;;;62.73;28.20;;;-1.90;99.90;;;;;;4170746;28;20494;-76
2022/03/06 06:42:51;;;;;;;60.50;25.47;;;-1.70;99.90;;;;;;4189333;28;20323;-63
2022/03/06 06:44:52;;;;;;;54.07;25.37;;;-1.60;99.90;;;;;;4200714;28;20276;-69
2022/03/06 06:46:53;;;;;;;55.70;25.67;;;-1.50;99.90;;;;;;4206839;28;20698;-71
2022/03/06 06:48:54;;;;;;;61.60;27.03;;;-1.50;99.90;;;;;;4205119;28;20333;-62
2022/03/06 06:50:55;;;;;;;61.93;26.97;;;-1.30;99.90;;;;;;4205650;28;20769;-77
2022/03/06 06:52:56;;;;;;;63.80;28.10;;;-1.20;99.90;;;;;;4205520;28;20342;-68
2022/03/06 06:54:57;;;;;;;56.03;26.33;;;-1.00;99.90;;;;;;4206710;28;20773;-71
2022/03/06 06:56:59;;;;;;;66.93;27.83;;;-0.90;99.90;;;;;;4205616;28;20322;-49
2022/03/06 06:59:00;;;;;;;65.23;27.17;;;-0.70;99.90;;;;;;4188212;28;20455;-51
2022/03/06 07:01:01;;;;;;;59.43;26.33;;;-0.60;99.90;;;;;;4208493;28;20261;-73
2022/03/06 07:03:02;;;;;;;60.20;27.20;;;-0.50;99.90;;;;;;4206439;28;20272;-71
2022/03/06 07:05:03;;;;;;;64.10;27.43;;;-0.50;99.90;;;;;;4239258;22;20318;-62
2022/03/06 07:07:05;;;;;;;63.43;27.07;;;-0.40;99.90;;;;;;4168547;28;20609;-53
2022/03/06 07:09:06;;;;;;;51.93;24.17;;;-0.40;99.90;;;;;;4186682;28;20643;-52
2022/03/06 07:11:07;;;;;;;54.13;24.43;;;-0.30;99.90;;;;;;4217461;22;20263;-57
2022/03/06 07:13:08;;;;;;;52.80;25.53;;;-0.20;99.90;;;;;;4154223;28;20353;-60
2022/03/06 07:15:11;;;;;;;58.90;25.30;;;0.00;99.90;;;;;;4154183;28;21149;-59
2022/03/06 07:17:12;;;;;;;53.47;24.60;;;0.20;99.90;;;;;;4174763;28;20270;-56
2022/03/06 07:19:14;;;;;;;56.63;26.00;;;0.30;99.90;;;;;;4172149;28;20282;-55
2022/03/06 07:21:15;;;;;;;58.63;26.57;;;0.50;99.90;;;;;;4173827;28;20328;-53
2022/03/06 07:23:17;;;;;;;52.87;25.27;;;0.50;99.90;;;;;;4173674;28;20290;-57
2022/03/06 07:25:18;;;;;;;57.20;26.90;;;0.70;99.90;;;;;;4176261;28;20315;-57
2022/03/06 07:27:19;;;;;;;57.53;24.50;;;0.80;99.90;;;;;;4175283;28;20259;-49
2022/03/06 07:29:20;;;;;;;56.13;26.77;;;1.00;99.90;;;;;;4175678;28;20261;-46
2022/03/06 07:31:22;;;;;;;61.27;26.97;;;1.00;99.90;;;;;;4175101;28;20266;-52
2022/03/06 07:33:23;;;;;;;52.10;23.33;;;1.20;99.90;;;;;;4176032;28;20270;-67
2022/03/06 07:35:24;;;;;;;48.33;23.83;;;1.40;99.90;;;;;;4177357;28;20782;-69
2022/03/06 07:37:25;;;;;;;45.77;21.63;;;1.70;99.90;;;;;;4174939;28;20716;-57
2022/03/06 07:39:26;;;;;;;40.53;19.37;;;2.00;99.90;;;;;;4175624;28;20718;-64
2022/03/06 07:41:27;;;;;;;38.33;19.57;;;2.40;99.90;;;;;;4174389;28;20293;-72
2022/03/06 07:43:29;;;;;;;41.37;20.00;;;2.80;99.90;;;;;;4175631;28;20320;-73
2022/03/06 07:45:30;;;;;;;41.97;19.03;;;2.90;99.90;;;;;;4285431;22;20942;-70
2022/03/06 07:47:31;;;;;;;35.73;18.33;;;3.10;99.90;;;;;;4175237;28;20270;-62
2022/03/06 07:49:32;;;;;;;33.40;17.40;;;3.00;99.90;;;;;;4175735;28;20680;-64
2022/03/06 07:51:33;;;;;;;33.17;17.27;;;2.90;99.90;;;;;;4175049;28;20320;-66
2022/03/06 07:53:34;;;;;;;35.77;18.80;;;2.90;99.90;;;;;;4157498;28;20255;-61
2022/03/06 07:55:35;;;;;;;41.57;18.80;;;2.90;99.90;;;;;;4177221;28;20378;-73
2022/03/06 07:57:37;;;;;;;32.70;16.83;;;3.10;99.90;;;;;;4176452;28;20262;-70
2022/03/06 07:59:38;;;;;;;34.33;15.97;;;3.50;99.90;;;;;;4177356;28;20257;-77
2022/03/06 08:01:39;;;;;;;29.63;13.30;;;3.70;99.90;;;;;;4174113;28;20254;-67
2022/03/06 08:03:40;;;;;;;30.13;15.77;;;3.60;99.90;;;;;;4274474;22;20317;-70
2022/03/06 08:05:42;;;;;;;27.07;12.77;;;4.00;99.90;;;;;;4163589;28;20282;-74
2022/03/06 08:07:44;;;;;;;17.50;9.57;;;4.30;99.90;;;;;;4183772;28;20317;-44
2022/03/06 08:09:45;;;;;;;16.00;9.70;;;4.50;99.90;;;;;;4183045;28;20654;-85
2022/03/06 08:11:46;;;;;;;17.60;9.50;;;4.50;99.90;;;;;;4186130;28;20499;-60
2022/03/06 08:13:47;;;;;;;19.17;10.50;;;4.50;99.90;;;;;;4167520;28;20274;-61
2022/03/06 08:17:59;;;;;;;;;;;4.50;99.90;;;;;;4159364;26;20439;-66
2022/03/06 08:20:00;;;;;;;;;;;4.60;99.60;;;;;;4175953;28;19913;-68
2022/03/06 08:22:01;;;;;;;17.45;8.55;;;4.40;99.90;;;;;;4158623;28;19963;-68
2022/03/06 08:24:02;;;;;;;17.23;9.40;;;4.60;99.90;;;;;;4174456;28;20037;-68
2022/03/06 08:26:03;;;;;;;18.17;8.97;;;4.60;99.90;;;;;;4176589;28;20327;-70
2022/03/06 08:28:05;;;;;;;18.70;9.63;;;4.70;99.90;;;;;;4174702;28;20403;-59
2022/03/06 08:30:07;;;;;;;22.03;8.30;;;4.70;99.50;;;;;;4156695;28;20283;-74
2022/03/06 08:32:10;;;;;;;16.67;7.70;;;4.60;98.70;;;;;;4174756;28;20561;-79
2022/03/06 08:34:11;;;;;;;17.27;8.10;;;4.50;98.40;;;;;;4174859;28;20266;-46
2022/03/06 08:36:12;;;;;;;17.60;8.43;;;4.40;99.10;;;;;;4175528;28;20316;-74
2022/03/06 08:38:14;;;;;;;16.10;8.40;;;4.30;97.60;;;;;;4176297;28;20270;-65
2022/03/06 08:40:15;;;;;;;20.23;8.83;;;4.20;98.10;;;;;;4178631;28;20294;-62
2022/03/06 08:42:17;;;;;;;14.93;7.90;;;4.00;97.10;;;;;;4176171;28;20316;-64
2022/03/06 08:44:18;;;;;;;19.80;9.60;;;4.00;97.60;;;;;;4176807;28;20312;-64
2022/03/06 08:46:19;;;;;;;16.83;8.93;;;4.00;98.00;;;;;;4160276;28;20274;-63
2022/03/06 08:48:21;;;;;;;19.83;9.00;;;3.90;98.20;;;;;;4176632;28;20319;-48
2022/03/06 08:50:22;;;;;;;16.93;8.87;;;4.00;98.10;;;;;;4176398;28;20278;-53
2022/03/06 08:52:23;;;;;;;18.43;8.60;;;4.00;97.80;;;;;;4178232;28;20292;-57
2022/03/06 08:54:24;;;;;;;16.57;8.27;;;4.10;96.90;;;;;;4177149;28;20302;-47
2022/03/06 08:56:25;;;;;;;17.53;8.27;;;4.20;97.20;;;;;;4173891;28;20270;-56
2022/03/06 08:58:27;;;;;;;15.83;7.97;;;4.10;96.20;;;;;;4175449;28;20379;-76
2022/03/06 09:00:28;;;;;;;14.63;8.43;;;4.10;96.00;;;;;;4174770;28;20829;-71
2022/03/06 09:02:29;;;;;;;18.50;9.33;;;3.90;96.10;;;;;;4173913;28;20336;-74
2022/03/06 09:08:43;;;;;;;15.67;8.80;;;4.20;96.30;;;;;;4183707;28;20781;-69
2022/03/06 09:10:44;;;;;;;16.33;9.40;;;4.40;95.40;;;;;;4175341;28;20640;-69
2022/03/06 09:12:45;;;;;;;15.90;8.57;;;4.40;94.80;;;;;;4190073;28;20270;-49
2022/03/06 09:14:46;;;;;;;22.97;9.33;;;4.40;95.10;;;;;;4175828;28;20306;-83
2022/03/06 09:16:48;;;;;;;16.23;9.20;;;4.50;95.50;;;;;;4178579;28;20266;-52
2022/03/06 09:18:49;;;;;;;18.13;9.60;;;4.50;94.80;;;;;;4159504;28;20378;-78
2022/03/06 09:20:50;;;;;;;19.87;9.03;;;4.40;94.70;;;;;;4184610;28;20297;-59
2022/03/06 09:22:52;;;;;;;16.70;8.87;;;4.30;95.30;;;;;;4176451;28;20270;-50
2022/03/06 09:24:53;;;;;;;20.17;9.83;;;4.10;95.30;;;;;;4186191;28;20703;-60
2022/03/06 09:26:54;;;;;;;14.60;7.73;;;3.90;95.30;;;;;;4193015;28;20731;-71
2022/03/06 09:28:56;;;;;;;15.73;9.13;;;3.90;95.10;;;;;;4171465;28;20282;-66
2022/03/06 09:30:57;;;;;;;18.83;8.80;;;3.90;95.60;;;;;;4171266;28;20270;-69
2022/03/06 09:32:58;;;;;;;15.40;9.27;;;4.00;95.40;;;;;;4190381;28;20312;-87
2022/03/06 09:34:59;;;;;;;15.23;8.47;;;3.90;95.70;;;;;;4192383;28;20277;-69
2022/03/06 09:37:00;;;;;;;17.03;8.33;;;3.80;95.80;;;;;;4192292;28;20261;-41
2022/03/06 09:39:03;;;;;;;17.80;8.83;;;3.90;95.80;;;;;;4191950;28;20331;-51
2022/03/06 09:41:04;;;;;;;16.30;9.03;;;4.10;95.60;;;;;;4188668;28;20331;-55
2022/03/06 09:43:14;;;;;;;16.27;7.93;;;4.40;95.30;;;;;;4173897;28;20927;-59
2022/03/06 09:45:16;;;;;;;17.13;8.10;;;4.50;94.50;;;;;;4210873;22;20690;-72
2022/03/06 09:47:17;;;;;;;13.10;8.00;;;4.30;94.00;;;;;;4148786;28;20304;-69
2022/03/06 09:49:19;;;;;;;19.43;9.37;;;4.20;94.50;;;;;;4159019;28;20346;-58
2022/03/06 09:51:20;;;;;;;15.97;8.93;;;4.30;94.70;;;;;;4161788;28;20270;-68
2022/03/06 09:53:21;;;;;;;14.03;7.87;;;4.40;94.40;;;;;;4139717;28;20275;-67
2022/03/06 09:55:23;;;;;;;16.17;8.60;;;4.50;93.90;;;;;;4170855;28;20718;-72
2022/03/06 09:57:24;;;;;;;15.97;8.03;;;4.40;93.80;;;;;;4176478;28;20751;-70
2022/03/06 09:59:25;;;;;;;13.53;7.70;;;4.60;93.90;;;;;;4160410;28;20738;-47
2022/03/06 10:01:26;;;;;;;17.53;8.50;;;4.80;93.10;;;;;;4159670;28;20654;-69
2022/03/06 10:05:36;;;;;;;18.30;9.40;;;4.80;93.40;;;;;;4161029;22;20321;-77
2022/03/06 10:07:37;;;;;;;14.73;8.63;;;4.90;92.90;;;;;;4157422;28;20029;-61
2022/03/06 10:09:50;;;;;;;15.10;8.40;;;4.90;93.40;;;;;;4158660;28;20360;-60
2022/03/06 10:11:54;;;;;;;14.97;8.30;;;5.00;93.30;;;;;;4146311;28;20744;-70
2022/03/06 10:13:55;;;;;;;17.17;8.53;;;5.20;92.60;;;;;;4127238;28;20639;-57
2022/03/06 10:16:20;;;;;;;14.90;7.67;;;5.10;92.60;;;;;;4141756;28;20694;-62
2022/03/06 10:18:21;;;;;;;13.47;8.27;;;5.00;91.30;;;;;;4142740;28;20279;-66
2022/03/06 10:20:22;;;;;;;15.53;8.23;;;4.90;91.70;;;;;;4152258;28;20620;-71
2022/03/06 10:22:34;;;;;;;14.40;7.63;;;4.70;92.40;;;;;;4156361;28;20309;-60
2022/03/06 10:24:49;;;;;;;16.87;8.57;;;4.80;92.40;;;;;;4156203;28;20333;-59
2022/03/06 10:26:50;;;;;;;13.53;7.80;;;4.70;91.80;;;;;;4157469;28;21058;-62
2022/03/06 10:29:04;;;;;;;13.50;7.90;;;4.60;91.90;;;;;;4156122;28;20282;-62
2022/03/06 10:31:05;;;;;;;12.07;7.57;;;4.50;92.00;;;;;;4157118;28;20325;-60
2022/03/06 10:33:26;;;;;;;13.03;7.50;;;4.60;92.10;;;;;;4155967;28;20276;-71
2022/03/06 10:35:41;;;;;;;15.07;8.20;;;4.60;92.10;;;;;;4157657;28;20347;-56
2022/03/06 10:37:42;;;;;;;14.50;7.47;;;4.70;91.80;;;;;;4141719;28;20076;-65